SQP515 LUKK-HESH
Flight info
| Callsign | SQP515 |
|---|---|
| Flight time | 3h 4m |
| Altitude | 36000 |
| Route | KODRU DCT RIPGA/N0439F350 DCT LUGEB DCT RIXEN/N0440F370 UG1 TETSA UL620 IST UT35 AYT UM855 TOMBI M855 RASDA A16 CVO L677 MENLI N697 SISIK |
| Aircraft | B737/M-SDE2E3FGHIRWXY/LB1 |
Departure
| Time | 2026-05-09 11:57 |
|---|---|
| Airport | Chişinău International Airport (LUKK) |
Arrival
| Time | 2026-05-09 15:01 |
|---|---|
| Airport | Sharm El Sheikh International Airport (HESH) |
| Time | Latitude | Longitude | Altitude | Speed | Heading |
|---|---|---|---|---|---|
| 2026-05-09 11:02 | 46.93404 | 28.93284 | 318 ft | 0 kts | 7° |
| 2026-05-09 11:41 | 46.93411 | 28.93286 | 318 ft | 0 kts | 7° |
| 2026-05-09 11:41 | 46.93420 | 28.93289 | 318 ft | 4 kts | 18° |
| 2026-05-09 11:42 | 46.93433 | 28.93363 | 316 ft | 11 kts | 96° |
| 2026-05-09 11:42 | 46.93420 | 28.93467 | 313 ft | 8 kts | 112° |
| 2026-05-09 11:42 | 46.93369 | 28.93478 | 313 ft | 6 kts | 185° |
| 2026-05-09 11:42 | 46.93322 | 28.93469 | 314 ft | 9 kts | 189° |
| 2026-05-09 11:43 | 46.93222 | 28.93453 | 316 ft | 15 kts | 186° |
| 2026-05-09 11:43 | 46.93158 | 28.93391 | 318 ft | 10 kts | 265° |
| 2026-05-09 11:43 | 46.93166 | 28.93291 | 320 ft | 10 kts | 279° |
| 2026-05-09 11:43 | 46.93177 | 28.93169 | 323 ft | 13 kts | 277° |
| 2026-05-09 11:44 | 46.93189 | 28.93015 | 326 ft | 18 kts | 277° |
| 2026-05-09 11:44 | 46.93206 | 28.92802 | 330 ft | 22 kts | 277° |
| 2026-05-09 11:44 | 46.93224 | 28.92587 | 334 ft | 21 kts | 278° |
| 2026-05-09 11:44 | 46.93245 | 28.92354 | 341 ft | 22 kts | 277° |
| 2026-05-09 11:45 | 46.93261 | 28.92166 | 352 ft | 15 kts | 277° |
| 2026-05-09 11:45 | 46.93260 | 28.92052 | 359 ft | 7 kts | 234° |
| 2026-05-09 11:45 | 46.93210 | 28.92024 | 360 ft | 9 kts | 192° |
| 2026-05-09 11:45 | 46.93135 | 28.91999 | 362 ft | 12 kts | 193° |
| 2026-05-09 11:46 | 46.93034 | 28.91989 | 362 ft | 15 kts | 180° |
| 2026-05-09 11:46 | 46.92967 | 28.91990 | 362 ft | 6 kts | 179° |
| 2026-05-09 11:46 | 46.92963 | 28.91990 | 362 ft | 0 kts | 179° |
| 2026-05-09 11:50 | 46.92955 | 28.91990 | 362 ft | 3 kts | 179° |
| 2026-05-09 11:50 | 46.92916 | 28.91992 | 362 ft | 7 kts | 178° |
| 2026-05-09 11:50 | 46.92899 | 28.91993 | 362 ft | 0 kts | 179° |
| 2026-05-09 11:53 | 46.92892 | 28.91993 | 362 ft | 3 kts | 179° |
| 2026-05-09 11:53 | 46.92844 | 28.91995 | 362 ft | 10 kts | 177° |
| 2026-05-09 11:54 | 46.92796 | 28.92004 | 361 ft | 5 kts | 165° |
| 2026-05-09 11:54 | 46.92761 | 28.92037 | 360 ft | 7 kts | 122° |
| 2026-05-09 11:54 | 46.92758 | 28.92094 | 358 ft | 0 kts | 88° |
| 2026-05-09 11:56 | 46.92768 | 28.92631 | 338 ft | 87 kts | 88° |
| 2026-05-09 11:56 | 46.92795 | 28.93826 | 307 ft | 148 kts | 88° |
| 2026-05-09 11:56 | 46.92838 | 28.95539 | 571 ft | 174 kts | 89° |
| 2026-05-09 11:57 | 46.92860 | 28.97258 | 1326 ft | 171 kts | 90° |
| 2026-05-09 11:57 | 46.92876 | 28.98913 | 1961 ft | 170 kts | 90° |
| 2026-05-09 11:57 | 46.92927 | 29.00748 | 2201 ft | 192 kts | 90° |
| 2026-05-09 11:57 | 46.92944 | 29.02776 | 2600 ft | 206 kts | 89° |
| 2026-05-09 11:58 | 46.92988 | 29.04854 | 3226 ft | 209 kts | 92° |
| 2026-05-09 11:58 | 46.92677 | 29.06956 | 3696 ft | 220 kts | 119° |
| 2026-05-09 11:58 | 46.91609 | 29.08623 | 4122 ft | 234 kts | 146° |
| 2026-05-09 11:58 | 46.90111 | 29.09624 | 4548 ft | 249 kts | 162° |
| 2026-05-09 11:59 | 46.88352 | 29.09846 | 5042 ft | 262 kts | 188° |
| 2026-05-09 11:59 | 46.86696 | 29.08697 | 5733 ft | 270 kts | 219° |
| 2026-05-09 11:59 | 46.85505 | 29.06596 | 6441 ft | 274 kts | 233° |
| 2026-05-09 11:59 | 46.84458 | 29.04278 | 7133 ft | 277 kts | 234° |
| 2026-05-09 12:00 | 46.83411 | 29.01919 | 7828 ft | 280 kts | 234° |
| 2026-05-09 12:00 | 46.82336 | 28.99543 | 8541 ft | 284 kts | 233° |
| 2026-05-09 12:00 | 46.81240 | 28.97168 | 9243 ft | 287 kts | 233° |
| 2026-05-09 12:00 | 46.80113 | 28.94744 | 9971 ft | 290 kts | 233° |
| 2026-05-09 12:01 | 46.78972 | 28.92295 | 10553 ft | 300 kts | 233° |
| 2026-05-09 12:01 | 46.77768 | 28.89713 | 10946 ft | 316 kts | 233° |
| 2026-05-09 12:01 | 46.76507 | 28.87008 | 11347 ft | 331 kts | 233° |
| 2026-05-09 12:01 | 46.75203 | 28.84205 | 11946 ft | 340 kts | 234° |
| 2026-05-09 12:02 | 46.73881 | 28.81357 | 12640 ft | 345 kts | 234° |
| 2026-05-09 12:02 | 46.72527 | 28.78446 | 13399 ft | 349 kts | 234° |
| 2026-05-09 12:02 | 46.71170 | 28.75538 | 14149 ft | 352 kts | 234° |
| 2026-05-09 12:02 | 46.69803 | 28.72610 | 14904 ft | 356 kts | 234° |
| 2026-05-09 12:03 | 46.68408 | 28.69628 | 15688 ft | 358 kts | 234° |
| 2026-05-09 12:03 | 46.66999 | 28.66620 | 16447 ft | 361 kts | 234° |
| 2026-05-09 12:03 | 46.65593 | 28.63623 | 17170 ft | 365 kts | 234° |
| 2026-05-09 12:03 | 46.64123 | 28.60616 | 17874 ft | 367 kts | 230° |
| 2026-05-09 12:04 | 46.62454 | 28.57860 | 18558 ft | 369 kts | 224° |
| 2026-05-09 12:04 | 46.60543 | 28.55333 | 19250 ft | 371 kts | 219° |
| 2026-05-09 12:04 | 46.58514 | 28.53009 | 19894 ft | 375 kts | 216° |
| 2026-05-09 12:04 | 46.56426 | 28.50783 | 20541 ft | 377 kts | 215° |
| 2026-05-09 12:05 | 46.54272 | 28.48549 | 21182 ft | 381 kts | 215° |
| 2026-05-09 12:05 | 46.52114 | 28.46328 | 21827 ft | 383 kts | 215° |
| 2026-05-09 12:05 | 46.49935 | 28.44086 | 22410 ft | 387 kts | 215° |
| 2026-05-09 12:05 | 46.47757 | 28.41842 | 23007 ft | 389 kts | 215° |
| 2026-05-09 12:06 | 46.45560 | 28.39571 | 23573 ft | 392 kts | 216° |
| 2026-05-09 12:06 | 46.43325 | 28.37257 | 24113 ft | 396 kts | 216° |
| 2026-05-09 12:06 | 46.41101 | 28.34952 | 24646 ft | 399 kts | 215° |
| 2026-05-09 12:06 | 46.38821 | 28.32587 | 25147 ft | 403 kts | 215° |
| 2026-05-09 12:07 | 46.36560 | 28.30247 | 25639 ft | 406 kts | 215° |
| 2026-05-09 12:07 | 46.34238 | 28.27846 | 26156 ft | 408 kts | 215° |
| 2026-05-09 12:07 | 46.31960 | 28.25486 | 26638 ft | 411 kts | 215° |
| 2026-05-09 12:07 | 46.29619 | 28.23058 | 27070 ft | 415 kts | 215° |
| 2026-05-09 12:08 | 46.27289 | 28.20645 | 27563 ft | 417 kts | 215° |
| 2026-05-09 12:08 | 46.24908 | 28.18188 | 28073 ft | 418 kts | 215° |
| 2026-05-09 12:08 | 46.22542 | 28.15811 | 28480 ft | 421 kts | 213° |
| 2026-05-09 12:08 | 46.19984 | 28.13683 | 28872 ft | 423 kts | 206° |
| 2026-05-09 12:09 | 46.17258 | 28.12146 | 29270 ft | 426 kts | 197° |
| 2026-05-09 12:09 | 46.14394 | 28.11140 | 29628 ft | 429 kts | 191° |
| 2026-05-09 12:09 | 46.11436 | 28.10373 | 29966 ft | 433 kts | 189° |
| 2026-05-09 12:10 | 46.02477 | 28.08439 | 31268 ft | 437 kts | 188° |
| 2026-05-09 12:10 | 45.99463 | 28.07802 | 31801 ft | 436 kts | 189° |
| 2026-05-09 12:10 | 45.96415 | 28.07148 | 32466 ft | 432 kts | 189° |
| 2026-05-09 12:11 | 45.93441 | 28.06503 | 33070 ft | 429 kts | 189° |
| 2026-05-09 12:11 | 45.90501 | 28.05859 | 33588 ft | 426 kts | 189° |
| 2026-05-09 12:11 | 45.87542 | 28.05204 | 34187 ft | 422 kts | 189° |
| 2026-05-09 12:11 | 45.84620 | 28.04557 | 34720 ft | 418 kts | 189° |
| 2026-05-09 12:12 | 45.81725 | 28.03917 | 35186 ft | 414 kts | 189° |
| 2026-05-09 12:12 | 45.78899 | 28.03290 | 35680 ft | 409 kts | 189° |
| 2026-05-09 12:12 | 45.76087 | 28.02668 | 35976 ft | 407 kts | 189° |
| 2026-05-09 12:13 | 45.70449 | 28.01412 | 36005 ft | 418 kts | 189° |
| 2026-05-09 12:13 | 45.64704 | 28.00132 | 36011 ft | 415 kts | 189° |
| 2026-05-09 12:14 | 45.58981 | 27.98875 | 36008 ft | 415 kts | 189° |
| 2026-05-09 12:14 | 45.53283 | 27.97620 | 36010 ft | 415 kts | 189° |
| 2026-05-09 12:15 | 45.47558 | 27.96355 | 36014 ft | 417 kts | 189° |
| 2026-05-09 12:15 | 45.41864 | 27.95099 | 36015 ft | 416 kts | 189° |
| 2026-05-09 12:16 | 45.36134 | 27.93842 | 36017 ft | 416 kts | 189° |
| 2026-05-09 12:16 | 45.30402 | 27.92591 | 36019 ft | 416 kts | 189° |
| 2026-05-09 12:17 | 45.24706 | 27.91353 | 36017 ft | 416 kts | 189° |
| 2026-05-09 12:17 | 45.18957 | 27.90880 | 36017 ft | 416 kts | 175° |
| 2026-05-09 12:18 | 45.13284 | 27.92458 | 36021 ft | 418 kts | 166° |
| 2026-05-09 12:18 | 45.07727 | 27.94784 | 36023 ft | 417 kts | 163° |
| 2026-05-09 12:19 | 45.02159 | 27.97214 | 36026 ft | 419 kts | 164° |
| 2026-05-09 12:19 | 44.96567 | 27.99608 | 36026 ft | 419 kts | 164° |
| 2026-05-09 12:20 | 44.90976 | 28.01971 | 36025 ft | 418 kts | 164° |
| 2026-05-09 12:20 | 44.85422 | 28.04304 | 36023 ft | 419 kts | 164° |
| 2026-05-09 12:21 | 44.79824 | 28.06641 | 36023 ft | 419 kts | 164° |
| 2026-05-09 12:21 | 44.74195 | 28.08984 | 36024 ft | 420 kts | 164° |
| 2026-05-09 12:22 | 44.68597 | 28.11306 | 36022 ft | 420 kts | 164° |
| 2026-05-09 12:22 | 44.63002 | 28.13624 | 36020 ft | 420 kts | 164° |
| 2026-05-09 12:23 | 44.57377 | 28.15951 | 36018 ft | 422 kts | 164° |
| 2026-05-09 12:23 | 44.51778 | 28.18257 | 36024 ft | 421 kts | 164° |
| 2026-05-09 12:24 | 44.46133 | 28.20569 | 36020 ft | 422 kts | 164° |
| 2026-05-09 12:24 | 44.40496 | 28.22886 | 36027 ft | 422 kts | 164° |
| 2026-05-09 12:25 | 44.34829 | 28.25212 | 36018 ft | 422 kts | 164° |
| 2026-05-09 12:25 | 44.29196 | 28.27515 | 35936 ft | 421 kts | 164° |
| 2026-05-09 12:25 | 44.26418 | 28.28653 | 35711 ft | 420 kts | 164° |
| 2026-05-09 12:26 | 44.23612 | 28.29802 | 35483 ft | 418 kts | 164° |
| 2026-05-09 12:26 | 44.20799 | 28.30952 | 35258 ft | 418 kts | 164° |
| 2026-05-09 12:26 | 44.18010 | 28.32091 | 35053 ft | 418 kts | 164° |
| 2026-05-09 12:27 | 44.12432 | 28.34364 | 35022 ft | 419 kts | 163° |
| 2026-05-09 12:27 | 44.06831 | 28.36640 | 35018 ft | 421 kts | 163° |
| 2026-05-09 12:28 | 44.01240 | 28.38906 | 35016 ft | 419 kts | 163° |
| 2026-05-09 12:28 | 43.95644 | 28.41167 | 35010 ft | 420 kts | 164° |
| 2026-05-09 12:29 | 43.90012 | 28.43438 | 35013 ft | 421 kts | 164° |
| 2026-05-09 12:29 | 43.84426 | 28.45690 | 35012 ft | 419 kts | 164° |
| 2026-05-09 12:30 | 43.78791 | 28.47955 | 35016 ft | 420 kts | 164° |
| 2026-05-09 12:30 | 43.70326 | 28.50781 | 35013 ft | 420 kts | 172° |
| 2026-05-09 12:31 | 43.61611 | 28.52203 | 35018 ft | 419 kts | 174° |
| 2026-05-09 12:32 | 43.55786 | 28.53066 | 35021 ft | 421 kts | 174° |
| 2026-05-09 12:32 | 43.49960 | 28.53966 | 35015 ft | 422 kts | 174° |
| 2026-05-09 12:33 | 43.44124 | 28.54895 | 35018 ft | 425 kts | 174° |
| 2026-05-09 12:33 | 43.38258 | 28.55841 | 35021 ft | 425 kts | 174° |
| 2026-05-09 12:34 | 43.32408 | 28.56792 | 35016 ft | 426 kts | 174° |
| 2026-05-09 12:34 | 43.26477 | 28.57754 | 35016 ft | 427 kts | 174° |
| 2026-05-09 12:35 | 43.20594 | 28.58709 | 35021 ft | 428 kts | 174° |
| 2026-05-09 12:35 | 43.14658 | 28.59667 | 35020 ft | 430 kts | 174° |
| 2026-05-09 12:36 | 43.08711 | 28.60621 | 35017 ft | 431 kts | 174° |
| 2026-05-09 12:36 | 43.02768 | 28.61580 | 35023 ft | 431 kts | 174° |
| 2026-05-09 12:37 | 42.96800 | 28.62542 | 35019 ft | 431 kts | 174° |
| 2026-05-09 12:37 | 42.90862 | 28.63496 | 35019 ft | 431 kts | 174° |
| 2026-05-09 12:38 | 42.84904 | 28.64450 | 35019 ft | 430 kts | 175° |
| 2026-05-09 12:38 | 42.78951 | 28.65400 | 35020 ft | 430 kts | 175° |
| 2026-05-09 12:39 | 42.72984 | 28.66351 | 35013 ft | 431 kts | 176° |
| 2026-05-09 12:39 | 42.67044 | 28.67296 | 35009 ft | 432 kts | 176° |
| 2026-05-09 12:40 | 42.61053 | 28.68246 | 35005 ft | 433 kts | 176° |
| 2026-05-09 12:40 | 42.55069 | 28.69196 | 35010 ft | 432 kts | 176° |
| 2026-05-09 12:41 | 42.49043 | 28.70150 | 35001 ft | 434 kts | 176° |
| 2026-05-09 12:41 | 42.43056 | 28.71097 | 35002 ft | 434 kts | 176° |
| 2026-05-09 12:42 | 42.37074 | 28.72039 | 34999 ft | 434 kts | 176° |
| 2026-05-09 12:42 | 42.31090 | 28.72980 | 35003 ft | 435 kts | 176° |
| 2026-05-09 12:43 | 42.25057 | 28.73926 | 34998 ft | 437 kts | 176° |
| 2026-05-09 12:43 | 42.18990 | 28.74879 | 34997 ft | 437 kts | 176° |
| 2026-05-09 12:44 | 42.12949 | 28.75824 | 35000 ft | 437 kts | 177° |
| 2026-05-09 12:44 | 42.06863 | 28.76745 | 35000 ft | 438 kts | 178° |
| 2026-05-09 12:45 | 42.00781 | 28.77144 | 35000 ft | 437 kts | 182° |
| 2026-05-09 12:45 | 41.94707 | 28.77285 | 34999 ft | 438 kts | 183° |
| 2026-05-09 12:46 | 41.88593 | 28.77426 | 34999 ft | 438 kts | 182° |
| 2026-05-09 12:46 | 41.82482 | 28.77612 | 35002 ft | 437 kts | 182° |
| 2026-05-09 12:47 | 41.76416 | 28.77827 | 35004 ft | 436 kts | 182° |
| 2026-05-09 12:47 | 41.70324 | 28.78054 | 35004 ft | 435 kts | 182° |
| 2026-05-09 12:48 | 41.64283 | 28.78285 | 35004 ft | 435 kts | 182° |
| 2026-05-09 12:48 | 41.58178 | 28.78519 | 35005 ft | 436 kts | 182° |
| 2026-05-09 12:49 | 41.52139 | 28.78753 | 35004 ft | 435 kts | 182° |
| 2026-05-09 12:49 | 41.46093 | 28.78990 | 35006 ft | 434 kts | 182° |
| 2026-05-09 12:50 | 41.40044 | 28.79229 | 35010 ft | 434 kts | 182° |
| 2026-05-09 12:50 | 41.34009 | 28.79465 | 35013 ft | 433 kts | 182° |
| 2026-05-09 12:51 | 41.27982 | 28.79702 | 35016 ft | 433 kts | 182° |
| 2026-05-09 12:51 | 41.21948 | 28.79937 | 35016 ft | 433 kts | 182° |
| 2026-05-09 12:52 | 41.15928 | 28.80186 | 35084 ft | 439 kts | 182° |
| 2026-05-09 12:52 | 41.12846 | 28.80317 | 35391 ft | 439 kts | 182° |
| 2026-05-09 12:52 | 41.09795 | 28.80447 | 35735 ft | 437 kts | 182° |
| 2026-05-09 12:52 | 41.06764 | 28.80578 | 36035 ft | 437 kts | 182° |
| 2026-05-09 12:53 | 41.03769 | 28.80705 | 36349 ft | 437 kts | 182° |
| 2026-05-09 12:53 | 41.00695 | 28.80842 | 36702 ft | 437 kts | 181° |
| 2026-05-09 12:53 | 40.97648 | 28.81222 | 37012 ft | 440 kts | 175° |
| 2026-05-09 12:54 | 40.91689 | 28.83324 | 37016 ft | 446 kts | 163° |
| 2026-05-09 12:54 | 40.85938 | 28.86335 | 37013 ft | 445 kts | 160° |
| 2026-05-09 12:55 | 40.80233 | 28.89539 | 37014 ft | 446 kts | 160° |
| 2026-05-09 12:55 | 40.74503 | 28.92738 | 37013 ft | 446 kts | 160° |
| 2026-05-09 12:56 | 40.68803 | 28.95878 | 37016 ft | 445 kts | 161° |
| 2026-05-09 12:56 | 40.63041 | 28.99015 | 37021 ft | 445 kts | 161° |
| 2026-05-09 12:57 | 40.57302 | 29.02122 | 37031 ft | 446 kts | 161° |
| 2026-05-09 12:57 | 40.51587 | 29.05207 | 37038 ft | 446 kts | 161° |
| 2026-05-09 12:58 | 40.45811 | 29.08315 | 37042 ft | 445 kts | 161° |
| 2026-05-09 12:58 | 40.40101 | 29.11389 | 37042 ft | 445 kts | 161° |
| 2026-05-09 12:59 | 40.34356 | 29.14478 | 37035 ft | 445 kts | 161° |
| 2026-05-09 12:59 | 40.28610 | 29.17558 | 37031 ft | 445 kts | 161° |
| 2026-05-09 13:00 | 40.22861 | 29.20632 | 37029 ft | 445 kts | 161° |
| 2026-05-09 13:00 | 40.17120 | 29.23697 | 37050 ft | 445 kts | 161° |
| 2026-05-09 13:01 | 40.11361 | 29.26768 | 37068 ft | 445 kts | 161° |
| 2026-05-09 13:01 | 40.05650 | 29.29807 | 37078 ft | 446 kts | 161° |
| 2026-05-09 13:02 | 39.99897 | 29.32860 | 37087 ft | 445 kts | 161° |
| 2026-05-09 13:02 | 39.94167 | 29.35894 | 37092 ft | 445 kts | 161° |
| 2026-05-09 13:03 | 39.88403 | 29.38961 | 37090 ft | 445 kts | 160° |
| 2026-05-09 13:03 | 39.82710 | 29.42084 | 37089 ft | 447 kts | 160° |
| 2026-05-09 13:04 | 39.76953 | 29.45272 | 37085 ft | 446 kts | 160° |
| 2026-05-09 13:04 | 39.71244 | 29.48417 | 37091 ft | 448 kts | 160° |
| 2026-05-09 13:05 | 39.65499 | 29.51574 | 37093 ft | 447 kts | 160° |
| 2026-05-09 13:05 | 39.59770 | 29.54618 | 37099 ft | 447 kts | 162° |
| 2026-05-09 13:06 | 39.53937 | 29.57522 | 37100 ft | 446 kts | 162° |
| 2026-05-09 13:06 | 39.48153 | 29.60366 | 37097 ft | 445 kts | 163° |
| 2026-05-09 13:07 | 39.42376 | 29.63215 | 37108 ft | 446 kts | 163° |
| 2026-05-09 13:07 | 39.36586 | 29.66077 | 37123 ft | 446 kts | 163° |
| 2026-05-09 13:08 | 39.30770 | 29.68956 | 37124 ft | 446 kts | 163° |
| 2026-05-09 13:08 | 39.24968 | 29.71827 | 37134 ft | 447 kts | 163° |
| 2026-05-09 13:09 | 39.19196 | 29.74678 | 37138 ft | 447 kts | 163° |
| 2026-05-09 13:09 | 39.13377 | 29.77550 | 37146 ft | 446 kts | 163° |
| 2026-05-09 13:10 | 39.07589 | 29.80403 | 37150 ft | 447 kts | 163° |
| 2026-05-09 13:10 | 39.01796 | 29.83256 | 37157 ft | 446 kts | 163° |
| 2026-05-09 13:11 | 38.96038 | 29.86088 | 37157 ft | 446 kts | 163° |
| 2026-05-09 13:11 | 38.90214 | 29.88937 | 37159 ft | 448 kts | 164° |
| 2026-05-09 13:12 | 38.84380 | 29.91748 | 37156 ft | 449 kts | 164° |
| 2026-05-09 13:12 | 38.78518 | 29.94525 | 37162 ft | 448 kts | 165° |
| 2026-05-09 13:13 | 38.72684 | 29.97280 | 37162 ft | 449 kts | 165° |
| 2026-05-09 13:13 | 38.66821 | 30.00050 | 37165 ft | 449 kts | 165° |
| 2026-05-09 13:14 | 38.60984 | 30.02806 | 37155 ft | 449 kts | 165° |
| 2026-05-09 13:16 | 38.37778 | 30.13745 | 37145 ft | 452 kts | 166° |
| 2026-05-09 13:16 | 38.31852 | 30.16514 | 37149 ft | 454 kts | 166° |
| 2026-05-09 13:17 | 38.25962 | 30.19224 | 37162 ft | 452 kts | 166° |
| 2026-05-09 13:17 | 38.20000 | 30.21949 | 37159 ft | 454 kts | 166° |
| 2026-05-09 13:18 | 38.14075 | 30.24666 | 37170 ft | 454 kts | 166° |
| 2026-05-09 13:18 | 38.08120 | 30.27394 | 37177 ft | 455 kts | 166° |
| 2026-05-09 13:19 | 38.02169 | 30.30110 | 37192 ft | 454 kts | 166° |
| 2026-05-09 13:19 | 37.96227 | 30.32818 | 37183 ft | 455 kts | 167° |
| 2026-05-09 13:20 | 37.90257 | 30.35516 | 37170 ft | 455 kts | 167° |
| 2026-05-09 13:20 | 37.84316 | 30.38201 | 37171 ft | 456 kts | 167° |
| 2026-05-09 13:21 | 37.78322 | 30.40904 | 37171 ft | 457 kts | 167° |
| 2026-05-09 13:21 | 37.72362 | 30.43592 | 37174 ft | 455 kts | 167° |
| 2026-05-09 13:22 | 37.66392 | 30.46285 | 37171 ft | 457 kts | 167° |
| 2026-05-09 13:22 | 37.60404 | 30.48973 | 37177 ft | 456 kts | 167° |
| 2026-05-09 13:23 | 37.45416 | 30.55674 | 37154 ft | 459 kts | 167° |
| 2026-05-09 13:24 | 37.39426 | 30.58353 | 37146 ft | 460 kts | 167° |
| 2026-05-09 13:24 | 37.33414 | 30.61033 | 37147 ft | 459 kts | 168° |
| 2026-05-09 13:25 | 37.27356 | 30.63724 | 37123 ft | 458 kts | 168° |
| 2026-05-09 13:26 | 37.18337 | 30.67733 | 37109 ft | 458 kts | 168° |
| 2026-05-09 13:26 | 37.12348 | 30.70388 | 37094 ft | 458 kts | 169° |
| 2026-05-09 13:27 | 37.06305 | 30.73051 | 37080 ft | 460 kts | 169° |
| 2026-05-09 13:27 | 37.00267 | 30.75721 | 37057 ft | 459 kts | 168° |
| 2026-05-09 13:28 | 36.94251 | 30.78340 | 37050 ft | 456 kts | 171° |
| 2026-05-09 13:28 | 36.88126 | 30.79855 | 37046 ft | 443 kts | 184° |
| 2026-05-09 13:29 | 36.82025 | 30.80126 | 37048 ft | 439 kts | 188° |
| 2026-05-09 13:29 | 36.75928 | 30.80172 | 37044 ft | 434 kts | 188° |
| 2026-05-09 13:30 | 36.69866 | 30.80258 | 37042 ft | 439 kts | 188° |
| 2026-05-09 13:30 | 36.63752 | 30.80400 | 36986 ft | 439 kts | 188° |
| 2026-05-09 13:31 | 36.57679 | 30.80580 | 37144 ft | 440 kts | 187° |
| 2026-05-09 13:31 | 36.54603 | 30.80681 | 37037 ft | 437 kts | 187° |
| 2026-05-09 13:31 | 36.51578 | 30.80786 | 37037 ft | 436 kts | 187° |
| 2026-05-09 13:32 | 36.45441 | 30.80994 | 37038 ft | 440 kts | 187° |
| 2026-05-09 13:32 | 36.37115 | 30.81278 | 37036 ft | 438 kts | 187° |
| 2026-05-09 13:33 | 36.33269 | 30.81408 | 37037 ft | 439 kts | 187° |
| 2026-05-09 13:33 | 36.27153 | 30.81608 | 37034 ft | 437 kts | 187° |
| 2026-05-09 13:34 | 36.21051 | 30.81811 | 37033 ft | 440 kts | 187° |
| 2026-05-09 13:34 | 36.16078 | 30.81971 | 37034 ft | 439 kts | 187° |
| 2026-05-09 13:35 | 36.09950 | 30.82176 | 37034 ft | 441 kts | 187° |
| 2026-05-09 13:35 | 36.03840 | 30.82382 | 37039 ft | 439 kts | 187° |
| 2026-05-09 13:36 | 35.97682 | 30.82690 | 37051 ft | 443 kts | 186° |
| 2026-05-09 13:36 | 35.91518 | 30.83083 | 37051 ft | 442 kts | 186° |
| 2026-05-09 13:37 | 35.85397 | 30.83483 | 37049 ft | 443 kts | 186° |
| 2026-05-09 13:37 | 35.79220 | 30.83871 | 37045 ft | 444 kts | 186° |
| 2026-05-09 13:38 | 35.73084 | 30.84251 | 37043 ft | 443 kts | 186° |
| 2026-05-09 13:38 | 35.66927 | 30.84622 | 37043 ft | 441 kts | 186° |
| 2026-05-09 13:39 | 35.60759 | 30.84985 | 37043 ft | 442 kts | 186° |
| 2026-05-09 13:39 | 35.54636 | 30.85237 | 37044 ft | 442 kts | 187° |
| 2026-05-09 13:40 | 35.48462 | 30.85423 | 37051 ft | 442 kts | 187° |
| 2026-05-09 13:40 | 35.42314 | 30.85607 | 37053 ft | 443 kts | 187° |
| 2026-05-09 13:41 | 35.36145 | 30.85799 | 37054 ft | 444 kts | 186° |
| 2026-05-09 13:41 | 35.29968 | 30.86001 | 37057 ft | 443 kts | 186° |
| 2026-05-09 13:42 | 35.23775 | 30.86209 | 37058 ft | 442 kts | 186° |
| 2026-05-09 13:42 | 35.17652 | 30.86413 | 37061 ft | 443 kts | 186° |
| 2026-05-09 13:43 | 35.11459 | 30.86618 | 37066 ft | 444 kts | 186° |
| 2026-05-09 13:43 | 35.05294 | 30.86824 | 37066 ft | 444 kts | 186° |
| 2026-05-09 13:44 | 34.99119 | 30.87029 | 37071 ft | 445 kts | 186° |
| 2026-05-09 13:44 | 34.92902 | 30.87234 | 37070 ft | 444 kts | 186° |
| 2026-05-09 13:45 | 34.86750 | 30.87439 | 37071 ft | 443 kts | 186° |
| 2026-05-09 13:45 | 34.80511 | 30.87643 | 37070 ft | 443 kts | 186° |
| 2026-05-09 13:46 | 34.74327 | 30.87847 | 37070 ft | 443 kts | 186° |
| 2026-05-09 13:46 | 34.68189 | 30.88052 | 37069 ft | 442 kts | 186° |
| 2026-05-09 13:47 | 34.62027 | 30.88253 | 37070 ft | 444 kts | 186° |
| 2026-05-09 13:47 | 34.55796 | 30.88510 | 37069 ft | 444 kts | 185° |
| 2026-05-09 13:48 | 34.49646 | 30.88827 | 37069 ft | 442 kts | 185° |
| 2026-05-09 13:48 | 34.43448 | 30.89149 | 37069 ft | 443 kts | 185° |
| 2026-05-09 13:49 | 34.37257 | 30.89463 | 37068 ft | 443 kts | 185° |
| 2026-05-09 13:49 | 34.31118 | 30.89771 | 37066 ft | 443 kts | 184° |
| 2026-05-09 13:50 | 34.24929 | 30.90076 | 37065 ft | 444 kts | 184° |
| 2026-05-09 13:50 | 34.18740 | 30.90401 | 37065 ft | 444 kts | 184° |
| 2026-05-09 13:51 | 34.12551 | 30.90750 | 37064 ft | 443 kts | 184° |
| 2026-05-09 13:51 | 34.06381 | 30.91097 | 37067 ft | 442 kts | 184° |
| 2026-05-09 13:52 | 34.00249 | 30.91436 | 37069 ft | 441 kts | 184° |
| 2026-05-09 13:52 | 33.94097 | 30.91778 | 37070 ft | 441 kts | 184° |
| 2026-05-09 13:53 | 33.87944 | 30.92041 | 37070 ft | 440 kts | 185° |
| 2026-05-09 13:53 | 33.81854 | 30.92257 | 37069 ft | 440 kts | 185° |
| 2026-05-09 13:54 | 33.75694 | 30.92476 | 37068 ft | 440 kts | 184° |
| 2026-05-09 13:54 | 33.69566 | 30.92703 | 37069 ft | 440 kts | 184° |
| 2026-05-09 13:55 | 33.63451 | 30.92934 | 37070 ft | 439 kts | 184° |
| 2026-05-09 13:55 | 33.57369 | 30.93166 | 37070 ft | 440 kts | 184° |
| 2026-05-09 13:56 | 33.51257 | 30.93398 | 37069 ft | 439 kts | 184° |
| 2026-05-09 13:56 | 33.45149 | 30.93627 | 37070 ft | 440 kts | 184° |
| 2026-05-09 13:57 | 33.38992 | 30.93860 | 37070 ft | 440 kts | 184° |
| 2026-05-09 13:57 | 33.32879 | 30.94089 | 37067 ft | 439 kts | 184° |
| 2026-05-09 13:58 | 33.26737 | 30.94316 | 37069 ft | 438 kts | 184° |
| 2026-05-09 13:58 | 33.20633 | 30.94543 | 37070 ft | 439 kts | 184° |
| 2026-05-09 13:59 | 33.14509 | 30.94776 | 37069 ft | 439 kts | 183° |
| 2026-05-09 13:59 | 33.08408 | 30.95025 | 37068 ft | 438 kts | 182° |
| 2026-05-09 14:00 | 33.04341 | 30.95389 | 37068 ft | 438 kts | 180° |
| 2026-05-09 14:00 | 32.96198 | 30.96380 | 37067 ft | 440 kts | 179° |
| 2026-05-09 14:01 | 32.90126 | 30.97120 | 37069 ft | 441 kts | 179° |
| 2026-05-09 14:01 | 32.84022 | 30.97828 | 37063 ft | 440 kts | 179° |
| 2026-05-09 14:02 | 32.77935 | 30.98519 | 37069 ft | 439 kts | 179° |
| 2026-05-09 14:02 | 32.71841 | 30.99205 | 37065 ft | 439 kts | 179° |
| 2026-05-09 14:03 | 32.65768 | 30.99881 | 37065 ft | 438 kts | 179° |
| 2026-05-09 14:03 | 32.59695 | 31.00556 | 37057 ft | 438 kts | 179° |
| 2026-05-09 14:04 | 32.53603 | 31.01230 | 37061 ft | 438 kts | 179° |
| 2026-05-09 14:04 | 32.47562 | 31.01899 | 37059 ft | 436 kts | 179° |
| 2026-05-09 14:05 | 32.41488 | 31.02575 | 37056 ft | 437 kts | 179° |
| 2026-05-09 14:05 | 32.35446 | 31.03239 | 37054 ft | 436 kts | 179° |
| 2026-05-09 14:06 | 32.29421 | 31.03902 | 37055 ft | 436 kts | 179° |
| 2026-05-09 14:06 | 32.23378 | 31.04569 | 37050 ft | 435 kts | 179° |
| 2026-05-09 14:07 | 32.17339 | 31.05237 | 37055 ft | 434 kts | 179° |
| 2026-05-09 14:07 | 32.11293 | 31.05904 | 37054 ft | 435 kts | 179° |
| 2026-05-09 14:08 | 32.06048 | 31.06479 | 37051 ft | 435 kts | 179° |
| 2026-05-09 14:08 | 32.00019 | 31.07135 | 37052 ft | 434 kts | 179° |
| 2026-05-09 14:09 | 31.93982 | 31.07786 | 37043 ft | 434 kts | 179° |
| 2026-05-09 14:09 | 31.87948 | 31.08437 | 37045 ft | 433 kts | 179° |
| 2026-05-09 14:10 | 31.78940 | 31.09404 | 37046 ft | 433 kts | 179° |
| 2026-05-09 14:11 | 31.72952 | 31.10042 | 37041 ft | 432 kts | 179° |
| 2026-05-09 14:11 | 31.66934 | 31.10684 | 37041 ft | 433 kts | 179° |
| 2026-05-09 14:12 | 31.60914 | 31.11323 | 37039 ft | 431 kts | 179° |
| 2026-05-09 14:12 | 31.54918 | 31.11965 | 37040 ft | 432 kts | 179° |
| 2026-05-09 14:13 | 31.48920 | 31.12749 | 37033 ft | 434 kts | 176° |
| 2026-05-09 14:15 | 31.25057 | 31.17382 | 37026 ft | 434 kts | 175° |
| 2026-05-09 14:15 | 31.19071 | 31.18511 | 37015 ft | 433 kts | 175° |
| 2026-05-09 14:16 | 31.13112 | 31.19621 | 37022 ft | 434 kts | 175° |
| 2026-05-09 14:16 | 31.07143 | 31.20727 | 37020 ft | 434 kts | 175° |
| 2026-05-09 14:17 | 31.01214 | 31.21833 | 37018 ft | 432 kts | 175° |
| 2026-05-09 14:17 | 30.95247 | 31.22942 | 37008 ft | 433 kts | 175° |
| 2026-05-09 14:18 | 30.89273 | 31.24048 | 37009 ft | 433 kts | 175° |
| 2026-05-09 14:18 | 30.83344 | 31.25148 | 37010 ft | 431 kts | 175° |
| 2026-05-09 14:19 | 30.77385 | 31.26247 | 37003 ft | 432 kts | 175° |
| 2026-05-09 14:19 | 30.71467 | 31.27338 | 37006 ft | 432 kts | 175° |
| 2026-05-09 14:20 | 30.65490 | 31.28440 | 37013 ft | 432 kts | 175° |
| 2026-05-09 14:20 | 30.59574 | 31.29532 | 37008 ft | 431 kts | 175° |
| 2026-05-09 14:21 | 30.50678 | 31.31174 | 37008 ft | 430 kts | 175° |
| 2026-05-09 14:21 | 30.44705 | 31.32273 | 37004 ft | 431 kts | 175° |
| 2026-05-09 14:22 | 30.38743 | 31.33365 | 37001 ft | 433 kts | 175° |
| 2026-05-09 14:22 | 30.32778 | 31.34453 | 37004 ft | 431 kts | 175° |
| 2026-05-09 14:23 | 30.26845 | 31.35540 | 37004 ft | 431 kts | 175° |
| 2026-05-09 14:23 | 30.20879 | 31.36636 | 37001 ft | 430 kts | 175° |
| 2026-05-09 14:24 | 30.14935 | 31.37809 | 37003 ft | 433 kts | 171° |
| 2026-05-09 14:24 | 30.12062 | 31.38932 | 37005 ft | 439 kts | 160° |
| 2026-05-09 14:24 | 30.09380 | 31.40636 | 37008 ft | 446 kts | 150° |
| 2026-05-09 14:25 | 30.04753 | 31.45496 | 37015 ft | 454 kts | 134° |
| 2026-05-09 14:25 | 30.00831 | 31.51292 | 37026 ft | 457 kts | 129° |
| 2026-05-09 14:26 | 29.97095 | 31.57227 | 37026 ft | 457 kts | 128° |
| 2026-05-09 14:26 | 29.93371 | 31.63134 | 37027 ft | 455 kts | 129° |
| 2026-05-09 14:27 | 29.89599 | 31.69036 | 37033 ft | 456 kts | 130° |
| 2026-05-09 14:27 | 29.85850 | 31.74907 | 37039 ft | 456 kts | 130° |
| 2026-05-09 14:28 | 29.82077 | 31.80811 | 37051 ft | 456 kts | 130° |
| 2026-05-09 14:28 | 29.78304 | 31.86697 | 37044 ft | 457 kts | 130° |
| 2026-05-09 14:29 | 29.74465 | 31.92511 | 37038 ft | 456 kts | 131° |
| 2026-05-09 14:29 | 29.70571 | 31.98233 | 37041 ft | 455 kts | 131° |
| 2026-05-09 14:30 | 29.66667 | 32.03945 | 37041 ft | 455 kts | 132° |
| 2026-05-09 14:30 | 29.62766 | 32.09662 | 37043 ft | 455 kts | 131° |
| 2026-05-09 14:31 | 29.58841 | 32.15416 | 37049 ft | 455 kts | 131° |
| 2026-05-09 14:31 | 29.54938 | 32.21135 | 37054 ft | 454 kts | 131° |
| 2026-05-09 14:32 | 29.51035 | 32.26854 | 37063 ft | 453 kts | 131° |
| 2026-05-09 14:32 | 29.47134 | 32.32573 | 37042 ft | 454 kts | 132° |
| 2026-05-09 14:33 | 29.43238 | 32.38273 | 37013 ft | 452 kts | 132° |
| 2026-05-09 14:33 | 29.39342 | 32.43963 | 36989 ft | 453 kts | 132° |
| 2026-05-09 14:34 | 29.35416 | 32.49685 | 36964 ft | 455 kts | 132° |
| 2026-05-09 14:34 | 29.31506 | 32.55372 | 36956 ft | 454 kts | 131° |
| 2026-05-09 14:35 | 29.27406 | 32.60836 | 36948 ft | 451 kts | 141° |
| 2026-05-09 14:35 | 29.22547 | 32.65255 | 36936 ft | 443 kts | 149° |
| 2026-05-09 14:36 | 29.17444 | 32.69235 | 36940 ft | 443 kts | 151° |
| 2026-05-09 14:36 | 29.12363 | 32.73181 | 36930 ft | 441 kts | 150° |
| 2026-05-09 14:37 | 29.09846 | 32.75164 | 36795 ft | 437 kts | 150° |
| 2026-05-09 14:37 | 29.07360 | 32.77143 | 36431 ft | 430 kts | 150° |
| 2026-05-09 14:37 | 29.04951 | 32.79073 | 35953 ft | 426 kts | 150° |
| 2026-05-09 14:37 | 29.02531 | 32.81015 | 35370 ft | 424 kts | 149° |
| 2026-05-09 14:38 | 29.00127 | 32.82949 | 34754 ft | 423 kts | 149° |
| 2026-05-09 14:38 | 28.97707 | 32.84897 | 34318 ft | 418 kts | 149° |
| 2026-05-09 14:38 | 28.95354 | 32.86797 | 33854 ft | 415 kts | 149° |
| 2026-05-09 14:38 | 28.92961 | 32.88725 | 33380 ft | 429 kts | 148° |
| 2026-05-09 14:39 | 28.90476 | 32.90719 | 32879 ft | 442 kts | 148° |
| 2026-05-09 14:39 | 28.87973 | 32.92730 | 32359 ft | 441 kts | 148° |
| 2026-05-09 14:39 | 28.85488 | 32.94731 | 31845 ft | 437 kts | 147° |
| 2026-05-09 14:39 | 28.82984 | 32.96750 | 31326 ft | 433 kts | 147° |
| 2026-05-09 14:40 | 28.80536 | 32.98725 | 30824 ft | 429 kts | 147° |
| 2026-05-09 14:40 | 28.78132 | 33.00665 | 30324 ft | 426 kts | 147° |
| 2026-05-09 14:40 | 28.75701 | 33.02622 | 29819 ft | 422 kts | 147° |
| 2026-05-09 14:40 | 28.73313 | 33.04544 | 29318 ft | 419 kts | 147° |
| 2026-05-09 14:41 | 28.70963 | 33.06435 | 28822 ft | 415 kts | 147° |
| 2026-05-09 14:41 | 28.68605 | 33.08329 | 28328 ft | 411 kts | 147° |
| 2026-05-09 14:41 | 28.66272 | 33.10202 | 27844 ft | 407 kts | 147° |
| 2026-05-09 14:41 | 28.63975 | 33.12043 | 27356 ft | 404 kts | 147° |
| 2026-05-09 14:42 | 28.61699 | 33.13868 | 26880 ft | 400 kts | 146° |
| 2026-05-09 14:42 | 28.59425 | 33.15694 | 26395 ft | 397 kts | 147° |
| 2026-05-09 14:42 | 28.57166 | 33.17506 | 25922 ft | 393 kts | 146° |
| 2026-05-09 14:42 | 28.54949 | 33.19283 | 25450 ft | 390 kts | 146° |
| 2026-05-09 14:43 | 28.52736 | 33.21053 | 24980 ft | 387 kts | 147° |
| 2026-05-09 14:43 | 28.50553 | 33.22798 | 24517 ft | 383 kts | 147° |
| 2026-05-09 14:43 | 28.48389 | 33.24528 | 24047 ft | 380 kts | 146° |
| 2026-05-09 14:43 | 28.46222 | 33.26260 | 23577 ft | 376 kts | 147° |
| 2026-05-09 14:44 | 28.44112 | 33.27946 | 23125 ft | 373 kts | 146° |
| 2026-05-09 14:44 | 28.42003 | 33.29630 | 22675 ft | 369 kts | 146° |
| 2026-05-09 14:44 | 28.39912 | 33.31298 | 22232 ft | 366 kts | 146° |
| 2026-05-09 14:44 | 28.37837 | 33.32954 | 21789 ft | 363 kts | 146° |
| 2026-05-09 14:45 | 28.35789 | 33.34585 | 21346 ft | 360 kts | 146° |
| 2026-05-09 14:45 | 28.33733 | 33.36220 | 20903 ft | 357 kts | 146° |
| 2026-05-09 14:45 | 28.31722 | 33.37819 | 20483 ft | 354 kts | 146° |
| 2026-05-09 14:45 | 28.29719 | 33.39411 | 20049 ft | 352 kts | 146° |
| 2026-05-09 14:46 | 28.27707 | 33.41010 | 19609 ft | 349 kts | 146° |
| 2026-05-09 14:46 | 28.25741 | 33.42574 | 19189 ft | 347 kts | 146° |
| 2026-05-09 14:46 | 28.23757 | 33.44151 | 18767 ft | 345 kts | 146° |
| 2026-05-09 14:46 | 28.21799 | 33.45708 | 18319 ft | 343 kts | 145° |
| 2026-05-09 14:47 | 28.19851 | 33.47259 | 17901 ft | 340 kts | 145° |
| 2026-05-09 14:47 | 28.17927 | 33.48790 | 17470 ft | 338 kts | 145° |
| 2026-05-09 14:47 | 28.16007 | 33.50315 | 17062 ft | 336 kts | 145° |
| 2026-05-09 14:47 | 28.14101 | 33.51830 | 16661 ft | 334 kts | 145° |
| 2026-05-09 14:48 | 28.12208 | 33.53332 | 16239 ft | 333 kts | 145° |
| 2026-05-09 14:48 | 28.10314 | 33.54832 | 15800 ft | 331 kts | 145° |
| 2026-05-09 14:48 | 28.08441 | 33.56313 | 15399 ft | 328 kts | 144° |
| 2026-05-09 14:48 | 28.06566 | 33.57797 | 14986 ft | 326 kts | 144° |
| 2026-05-09 14:49 | 28.04722 | 33.59257 | 14614 ft | 324 kts | 144° |
| 2026-05-09 14:49 | 28.02902 | 33.60777 | 14164 ft | 323 kts | 139° |
| 2026-05-09 14:49 | 28.01422 | 33.62629 | 13852 ft | 316 kts | 122° |
| 2026-05-09 14:49 | 28.00489 | 33.64858 | 13455 ft | 313 kts | 108° |
| 2026-05-09 14:50 | 27.99819 | 33.67189 | 12935 ft | 313 kts | 107° |
| 2026-05-09 14:50 | 27.99180 | 33.69555 | 12500 ft | 312 kts | 107° |
| 2026-05-09 14:50 | 27.98546 | 33.71891 | 12080 ft | 311 kts | 107° |
| 2026-05-09 14:50 | 27.97909 | 33.74194 | 11692 ft | 308 kts | 107° |
| 2026-05-09 14:51 | 27.97265 | 33.76487 | 11310 ft | 303 kts | 107° |
| 2026-05-09 14:51 | 27.96626 | 33.78751 | 10999 ft | 297 kts | 107° |
| 2026-05-09 14:51 | 27.96010 | 33.80927 | 10792 ft | 290 kts | 108° |
| 2026-05-09 14:51 | 27.95397 | 33.83087 | 10214 ft | 292 kts | 108° |
| 2026-05-09 14:52 | 27.94782 | 33.85251 | 9867 ft | 283 kts | 108° |
| 2026-05-09 14:52 | 27.94191 | 33.87325 | 9582 ft | 275 kts | 108° |
| 2026-05-09 14:52 | 27.93602 | 33.89395 | 9247 ft | 274 kts | 108° |
| 2026-05-09 14:52 | 27.93023 | 33.91428 | 8897 ft | 273 kts | 108° |
| 2026-05-09 14:53 | 27.92438 | 33.93475 | 8581 ft | 271 kts | 108° |
| 2026-05-09 14:53 | 27.91866 | 33.95474 | 8265 ft | 270 kts | 107° |
| 2026-05-09 14:53 | 27.91272 | 33.97506 | 8016 ft | 268 kts | 109° |
| 2026-05-09 14:53 | 27.90612 | 33.99446 | 7713 ft | 268 kts | 111° |
| 2026-05-09 14:54 | 27.89881 | 34.01416 | 7273 ft | 272 kts | 112° |
| 2026-05-09 14:54 | 27.89152 | 34.03363 | 6928 ft | 271 kts | 112° |
| 2026-05-09 14:54 | 27.88421 | 34.05336 | 6544 ft | 269 kts | 111° |
| 2026-05-09 14:54 | 27.87718 | 34.07255 | 6131 ft | 267 kts | 111° |
| 2026-05-09 14:55 | 27.87010 | 34.09205 | 5703 ft | 265 kts | 110° |
| 2026-05-09 14:55 | 27.86317 | 34.11113 | 5282 ft | 263 kts | 110° |
| 2026-05-09 14:55 | 27.85631 | 34.13009 | 4854 ft | 261 kts | 110° |
| 2026-05-09 14:55 | 27.84949 | 34.14884 | 4429 ft | 258 kts | 110° |
| 2026-05-09 14:56 | 27.84267 | 34.16760 | 4001 ft | 255 kts | 110° |
| 2026-05-09 14:56 | 27.83599 | 34.18600 | 3578 ft | 253 kts | 110° |
| 2026-05-09 14:56 | 27.82983 | 34.20437 | 3173 ft | 247 kts | 104° |
| 2026-05-09 14:56 | 27.82918 | 34.22303 | 2817 ft | 234 kts | 71° |
| 2026-05-09 14:57 | 27.83667 | 34.23821 | 2716 ft | 215 kts | 53° |
| 2026-05-09 14:57 | 27.84459 | 34.25214 | 2623 ft | 204 kts | 52° |
| 2026-05-09 14:57 | 27.85338 | 34.26378 | 2565 ft | 184 kts | 41° |
| 2026-05-09 14:57 | 27.86291 | 34.27361 | 2514 ft | 189 kts | 38° |
| 2026-05-09 14:58 | 27.87239 | 34.28325 | 2394 ft | 178 kts | 39° |
| 2026-05-09 14:58 | 27.88140 | 34.29268 | 2347 ft | 176 kts | 39° |
| 2026-05-09 14:58 | 27.89044 | 34.30201 | 2151 ft | 170 kts | 39° |
| 2026-05-09 14:58 | 27.89896 | 34.31077 | 1939 ft | 160 kts | 39° |
| 2026-05-09 14:59 | 27.90681 | 34.31893 | 1752 ft | 149 kts | 38° |
| 2026-05-09 14:59 | 27.91423 | 34.32661 | 1546 ft | 142 kts | 38° |
| 2026-05-09 14:59 | 27.92149 | 34.33407 | 1376 ft | 140 kts | 37° |
| 2026-05-09 14:59 | 27.92858 | 34.34150 | 1204 ft | 140 kts | 38° |
| 2026-05-09 15:00 | 27.93586 | 34.34895 | 1017 ft | 139 kts | 37° |
| 2026-05-09 15:00 | 27.94283 | 34.35625 | 841 ft | 137 kts | 38° |
| 2026-05-09 15:00 | 27.94985 | 34.36348 | 668 ft | 134 kts | 37° |
| 2026-05-09 15:00 | 27.95687 | 34.37071 | 506 ft | 137 kts | 38° |
| 2026-05-09 15:01 | 27.97080 | 34.38505 | 180 ft | 131 kts | 38° |
| 2026-05-09 15:01 | 27.97638 | 34.39080 | 181 ft | 78 kts | 41° |
| 2026-05-09 15:01 | 27.97930 | 34.39391 | 175 ft | 45 kts | 40° |
| 2026-05-09 15:02 | 27.98078 | 34.39547 | 172 ft | 15 kts | 43° |
| 2026-05-09 15:02 | 27.98154 | 34.39549 | 174 ft | 10 kts | 321° |
| 2026-05-09 15:02 | 27.98199 | 34.39500 | 176 ft | 2 kts | 310° |
| 2026-05-09 15:04 | 27.98203 | 34.39495 | 176 ft | 3 kts | 307° |
| 2026-05-09 15:04 | 27.98234 | 34.39452 | 178 ft | 10 kts | 312° |
| 2026-05-09 15:06 | 27.98292 | 34.39189 | 190 ft | 5 kts | 143° |
| 2026-05-09 15:06 | 27.98277 | 34.39207 | 189 ft | 3 kts | 132° |
| 2026-05-09 15:06 | 27.98266 | 34.39220 | 189 ft | 2 kts | 133° |
| 2026-05-09 15:06 | 27.98260 | 34.39227 | 189 ft | 0 kts | 133° |